Upper Marlboro, Maryland
Current Conditions -  °F | °C
As of 4:58 PM on Saturday 25 Oct 2014 (Local Time) from KADW Reporting Station
Clear Clear  
Wind Chill: 69°   Ceiling: Unl
Heat Index: 69°   Visibility: 10mi
Dew Point: 37°   Wind: 14mph
Humidity: 31%   Direction: 210°SSW
Pressure: 29.78"   Gusts: NA
Location:  38.82°N, 76.76°W
Report Text: KADW 252058Z AUTO 21012KT 10SM CLR 21/03 A2978 RMK AO2 SLP090 T02060029 57024 $
Loading
Personal Weather Stations






























Interactive Weather Map
Tropical Storm Tracking
New forecast layout! Learn more

10-Day Weather Forecast

Advertisements
Track Severe Weather on mobile